Time;durP1;ratioP1;P1;durP2;ratioP2;P2;SDS_P1;SDS_P2;PMS_P1;PMS_P2;Temp;Humidity;BMP_temperature;BMP_pressure;BME280_temperature;BME280_humidity;BME280_pressure;Samples;Min_cycle;Max_cycle;Signal;HPM_P1;HPM_P2
2023/08/11 00:02:11;;;;;;;7.83;4.90;;;16.10;99.90;;;;;;5066742;28;20208;-55
2023/08/11 00:04:37;;;;;;;9.50;5.67;;;16.10;99.90;;;;;;5072922;28;20201;-55
2023/08/11 00:07:03;;;;;;;10.63;5.10;;;16.00;99.90;;;;;;5083077;28;20201;-57
2023/08/11 00:09:28;;;;;;;7.57;5.73;;;16.00;99.90;;;;;;5082841;28;20796;-55
2023/08/11 00:11:55;;;;;;;8.57;5.60;;;15.90;99.90;;;;;;5082913;28;21093;-56
2023/08/11 00:14:20;;;;;;;8.77;5.50;;;15.90;99.90;;;;;;5082960;28;20820;-54
2023/08/11 00:16:46;;;;;;;9.43;5.30;;;15.90;99.90;;;;;;5082997;28;20225;-56
2023/08/11 00:19:11;;;;;;;6.23;4.53;;;15.90;99.90;;;;;;5064153;28;20784;-56
2023/08/11 00:21:37;;;;;;;6.67;4.50;;;15.90;99.90;;;;;;5083282;28;20507;-56
2023/08/11 00:24:03;;;;;;;4.93;4.37;;;15.80;99.90;;;;;;5083138;28;20732;-53
2023/08/11 00:26:30;;;;;;;7.77;4.40;;;15.80;99.90;;;;;;5074946;28;20187;-55
2023/08/11 00:28:56;;;;;;;6.87;5.17;;;15.70;99.90;;;;;;5080621;28;20197;-54
2023/08/11 00:31:22;;;;;;;9.40;5.20;;;15.70;99.90;;;;;;5082589;28;20404;-54
2023/08/11 00:33:48;;;;;;;5.10;4.60;;;15.70;99.90;;;;;;5074423;28;20206;-55
2023/08/11 00:36:15;;;;;;;4.97;4.37;;;15.70;99.90;;;;;;5082393;28;20352;-56
2023/08/11 00:38:40;;;;;;;7.20;4.47;;;15.60;99.90;;;;;;5082686;28;20208;-53
2023/08/11 00:41:07;;;;;;;9.07;4.93;;;15.60;99.90;;;;;;5082588;28;20193;-54
2023/08/11 00:43:32;;;;;;;8.00;5.27;;;15.60;99.90;;;;;;5079090;28;20225;-54
2023/08/11 00:46:06;;;;;;;11.00;5.70;;;15.60;99.90;;;;;;5070930;28;20197;-54
2023/08/11 00:48:32;;;;;;;8.30;5.27;;;15.50;99.90;;;;;;5081637;28;20281;-54
2023/08/11 00:50:57;;;;;;;9.23;5.30;;;15.50;99.90;;;;;;5081973;28;20301;-54
2023/08/11 00:53:24;;;;;;;8.27;4.67;;;15.50;99.90;;;;;;5082284;28;20667;-55
2023/08/11 00:55:50;;;;;;;9.30;4.27;;;15.50;99.90;;;;;;5082385;28;20205;-55
2023/08/11 00:58:16;;;;;;;10.27;5.13;;;15.50;99.90;;;;;;5081894;28;20196;-55
2023/08/11 01:00:43;;;;;;;7.17;4.77;;;15.40;99.90;;;;;;5080098;28;20206;-55
2023/08/11 01:03:09;;;;;;;7.60;3.83;;;15.40;99.90;;;;;;5082222;28;20185;-56
2023/08/11 01:05:43;;;;;;;7.27;4.63;;;15.50;99.90;;;;;;5082051;28;20261;-55
2023/08/11 01:08:17;;;;;;;8.97;5.53;;;15.50;99.90;;;;;;5074858;28;20503;-55
2023/08/11 01:11:06;;;;;;;6.00;3.83;;;15.50;99.90;;;;;;5079035;28;20221;-54
2023/08/11 01:13:35;;;;;;;9.60;4.50;;;15.40;99.90;;;;;;5070843;28;20186;-56
2023/08/11 01:16:04;;;;;;;5.43;4.37;;;15.30;99.90;;;;;;5065281;28;20185;-56
2023/08/11 01:18:30;;;;;;;6.73;4.33;;;15.30;99.90;;;;;;5082169;28;20205;-56
2023/08/11 01:21:03;;;;;;;9.13;4.43;;;15.30;99.90;;;;;;5082002;28;20258;-56
2023/08/11 01:23:29;;;;;;;11.50;4.67;;;15.20;99.90;;;;;;5091942;28;20185;-56
2023/08/11 01:25:56;;;;;;;9.37;5.00;;;15.20;99.90;;;;;;5071074;28;20192;-55
2023/08/11 01:28:21;;;;;;;6.37;5.10;;;15.10;99.90;;;;;;5081144;28;20667;-56
2023/08/11 01:30:48;;;;;;;13.57;4.67;;;15.10;99.90;;;;;;5079618;28;20232;-56
2023/08/11 01:33:14;;;;;;;6.13;4.27;;;15.20;99.90;;;;;;5081912;28;20196;-56
2023/08/11 01:35:40;;;;;;;5.93;4.33;;;15.10;99.90;;;;;;5081366;28;20182;-56
2023/08/11 01:38:06;;;;;;;7.20;4.83;;;15.00;99.90;;;;;;5067070;28;21091;-56
2023/08/11 01:40:32;;;;;;;4.93;4.10;;;14.90;99.90;;;;;;5081417;28;20310;-56
2023/08/11 01:43:02;;;;;;;7.53;4.80;;;14.90;99.90;;;;;;5080900;28;21072;-56
2023/08/11 01:45:28;;;;;;;6.40;3.83;;;14.90;99.90;;;;;;5066584;28;20197;-56
2023/08/11 01:47:54;;;;;;;7.13;4.97;;;14.80;99.90;;;;;;5081271;28;20189;-56
2023/08/11 01:50:20;;;;;;;6.17;5.07;;;14.80;99.90;;;;;;5068238;28;20296;-56
2023/08/11 01:52:47;;;;;;;6.87;3.97;;;14.80;99.90;;;;;;5081286;28;21185;-56
2023/08/11 01:55:14;;;;;;;4.70;4.33;;;14.80;99.90;;;;;;5051832;28;20243;-60
2023/08/11 01:57:43;;;;;;;8.10;3.80;;;14.80;99.90;;;;;;5058059;28;20209;-57
2023/08/11 02:00:13;;;;;;;5.67;4.43;;;14.80;99.90;;;;;;5078990;28;20259;-57
2023/08/11 02:02:40;;;;;;;5.03;3.53;;;14.80;99.90;;;;;;5078716;28;20190;-54
2023/08/11 02:05:11;;;;;;;5.77;4.40;;;14.80;99.90;;;;;;5081149;28;20189;-54
2023/08/11 02:07:37;;;;;;;4.43;3.50;;;14.80;99.90;;;;;;5081379;28;20753;-55
2023/08/11 02:10:03;;;;;;;6.33;3.87;;;14.80;99.90;;;;;;5073663;28;20214;-55
2023/08/11 02:12:29;;;;;;;5.00;4.07;;;14.90;99.90;;;;;;5081138;28;20205;-55
2023/08/11 02:14:54;;;;;;;5.90;4.03;;;15.00;99.90;;;;;;5081421;28;20193;-55
2023/08/11 02:17:20;;;;;;;7.17;3.93;;;15.00;99.90;;;;;;5081146;28;20193;-55
2023/08/11 02:19:45;;;;;;;5.90;4.10;;;14.90;99.90;;;;;;5066868;28;20186;-55
2023/08/11 02:22:11;;;;;;;5.83;3.93;;;14.90;99.90;;;;;;5081037;28;20825;-56
2023/08/11 02:24:37;;;;;;;5.67;3.97;;;14.90;99.90;;;;;;5069427;28;20250;-55
2023/08/11 02:27:02;;;;;;;4.43;3.40;;;14.90;99.90;;;;;;5072590;28;20650;-56
2023/08/11 02:29:28;;;;;;;7.00;4.17;;;15.00;99.90;;;;;;5074479;28;20201;-55
2023/08/11 02:31:53;;;;;;;5.23;4.03;;;15.00;99.90;;;;;;5080911;28;20225;-56
2023/08/11 02:34:19;;;;;;;5.50;3.93;;;15.10;99.90;;;;;;5057733;28;20204;-56
2023/08/11 02:36:44;;;;;;;4.40;4.00;;;15.10;99.90;;;;;;5080862;28;20193;-56
2023/08/11 02:39:10;;;;;;;8.93;5.07;;;15.00;99.90;;;;;;5073084;28;20190;-56
2023/08/11 02:41:35;;;;;;;12.40;5.23;;;15.00;99.90;;;;;;5078151;28;20721;-56
2023/08/11 02:44:02;;;;;;;11.53;7.23;;;15.00;99.90;;;;;;5078114;28;20225;-56
2023/08/11 02:46:27;;;;;;;11.03;5.77;;;15.10;99.90;;;;;;5081389;28;20193;-56
2023/08/11 02:48:53;;;;;;;8.30;5.20;;;15.10;99.90;;;;;;5080704;28;20204;-56
2023/08/11 02:51:19;;;;;;;8.37;5.27;;;15.20;99.90;;;;;;5080809;28;20221;-56
2023/08/11 02:53:44;;;;;;;9.90;4.50;;;15.10;99.90;;;;;;5059587;28;20201;-56
2023/08/11 02:56:15;;;;;;;9.33;4.83;;;15.20;99.90;;;;;;5080268;28;20813;-55
2023/08/11 02:58:43;;;;;;;9.07;4.83;;;15.20;99.90;;;;;;5065957;28;20200;-55
2023/08/11 03:01:09;;;;;;;5.93;4.17;;;15.20;99.90;;;;;;5079982;28;20197;-55
2023/08/11 03:03:35;;;;;;;7.63;4.17;;;15.10;99.90;;;;;;5080679;28;20190;-54
2023/08/11 03:06:00;;;;;;;4.73;4.20;;;15.10;99.90;;;;;;5080552;28;20223;-55
2023/08/11 03:08:26;;;;;;;4.70;3.87;;;15.20;99.90;;;;;;5063636;28;20571;-55
2023/08/11 03:10:51;;;;;;;6.63;4.10;;;15.20;99.90;;;;;;5077131;28;20687;-55
2023/08/11 03:13:17;;;;;;;5.30;3.90;;;15.20;99.90;;;;;;5084056;28;20185;-55
2023/08/11 03:15:43;;;;;;;6.47;4.33;;;15.20;99.90;;;;;;5083818;28;20189;-55
2023/08/11 03:18:10;;;;;;;6.57;4.93;;;15.30;99.90;;;;;;5083968;28;20205;-55
2023/08/11 03:20:36;;;;;;;9.20;4.60;;;15.40;99.90;;;;;;5095649;28;20272;-55
2023/08/11 03:23:04;;;;;;;11.67;4.67;;;15.40;99.90;;;;;;5084006;28;20670;-56
2023/08/11 03:25:30;;;;;;;5.17;4.43;;;15.40;99.90;;;;;;5074489;28;20196;-55
2023/08/11 03:27:56;;;;;;;5.13;4.63;;;15.50;99.90;;;;;;5073007;28;20202;-57
2023/08/11 03:30:22;;;;;;;4.50;3.67;;;15.60;99.90;;;;;;5083048;28;20209;-54
2023/08/11 03:32:48;;;;;;;5.03;3.97;;;15.70;99.90;;;;;;5083538;28;20284;-55
2023/08/11 03:35:13;;;;;;;8.40;4.50;;;15.60;99.90;;;;;;5083974;28;20907;-56
2023/08/11 03:37:39;;;;;;;4.87;4.33;;;15.50;99.90;;;;;;5083530;28;20193;-55
2023/08/11 03:40:09;;;;;;;4.67;4.23;;;15.50;99.90;;;;;;5089192;28;20198;-56
2023/08/11 03:42:34;;;;;;;5.67;4.20;;;15.50;99.90;;;;;;5083393;28;20991;-56
2023/08/11 03:45:00;;;;;;;6.00;4.70;;;15.50;99.90;;;;;;5079912;28;20264;-56
2023/08/11 03:47:25;;;;;;;6.27;4.80;;;15.50;99.90;;;;;;5079037;28;20200;-56
2023/08/11 03:49:51;;;;;;;6.80;4.47;;;15.40;99.90;;;;;;5083785;28;20568;-56
2023/08/11 03:52:16;;;;;;;8.97;4.33;;;15.40;99.90;;;;;;5083764;28;20627;-56
2023/08/11 03:54:42;;;;;;;5.60;4.30;;;15.40;99.90;;;;;;5083516;28;20228;-56
2023/08/11 03:57:07;;;;;;;5.60;4.10;;;15.40;99.90;;;;;;5083487;28;20216;-56
2023/08/11 03:59:34;;;;;;;9.97;4.97;;;15.40;99.90;;;;;;5068676;28;20280;-56
2023/08/11 04:02:00;;;;;;;6.87;5.10;;;15.40;99.90;;;;;;5083044;28;20190;-56
2023/08/11 04:04:25;;;;;;;6.97;4.23;;;15.40;99.90;;;;;;5083092;28;20188;-56
2023/08/11 04:06:52;;;;;;;5.67;4.47;;;15.40;99.90;;;;;;5058247;28;20592;-54
2023/08/11 04:09:18;;;;;;;7.17;4.83;;;15.50;99.90;;;;;;5082598;28;20197;-54
2023/08/11 04:11:43;;;;;;;11.03;5.20;;;15.50;99.90;;;;;;5080976;28;20355;-54
2023/08/11 04:14:09;;;;;;;6.97;5.40;;;15.50;99.90;;;;;;5083089;28;20301;-54
2023/08/11 04:16:34;;;;;;;8.07;5.20;;;15.50;99.90;;;;;;5074228;28;20290;-54
2023/08/11 04:19:00;;;;;;;10.17;5.53;;;15.50;99.90;;;;;;5081506;28;20217;-54
2023/08/11 04:21:26;;;;;;;9.57;5.20;;;15.50;99.90;;;;;;5067441;28;20197;-55
2023/08/11 04:23:51;;;;;;;6.33;5.17;;;15.60;99.90;;;;;;5082124;28;20436;-55
2023/08/11 04:26:17;;;;;;;9.53;5.40;;;15.70;99.90;;;;;;5074365;28;20322;-56
2023/08/11 04:28:43;;;;;;;8.27;6.53;;;15.70;99.90;;;;;;5065996;28;20195;-56
2023/08/11 04:31:09;;;;;;;10.73;6.33;;;15.80;99.90;;;;;;5081992;28;20226;-56
2023/08/11 04:33:35;;;;;;;11.93;7.10;;;15.90;99.90;;;;;;5077659;28;20200;-56
2023/08/11 04:36:02;;;;;;;9.67;5.70;;;15.90;99.90;;;;;;5081729;28;20185;-57
2023/08/11 04:38:30;;;;;;;7.37;6.03;;;15.90;99.90;;;;;;5073520;28;20283;-55
2023/08/11 04:40:57;;;;;;;8.90;5.83;;;15.90;99.90;;;;;;5080062;28;20205;-55
2023/08/11 04:43:22;;;;;;;9.37;5.67;;;15.90;99.90;;;;;;5081828;28;20238;-55
2023/08/11 04:45:49;;;;;;;11.27;5.37;;;16.00;99.90;;;;;;5067189;28;20199;-53
2023/08/11 04:48:14;;;;;;;9.40;4.67;;;16.00;99.90;;;;;;5075996;28;20208;-55
2023/08/11 04:50:40;;;;;;;4.57;4.17;;;16.10;99.90;;;;;;5055160;28;20210;-56
2023/08/11 04:53:06;;;;;;;7.13;5.17;;;16.10;99.90;;;;;;5073688;28;20205;-57
2023/08/11 04:55:32;;;;;;;6.20;4.67;;;16.10;99.90;;;;;;5081457;28;20193;-57
2023/08/11 04:57:57;;;;;;;6.70;4.60;;;16.10;99.90;;;;;;5081874;28;20189;-57
2023/08/11 05:00:23;;;;;;;9.47;5.47;;;16.10;99.90;;;;;;5065072;28;20735;-57
2023/08/11 05:02:51;;;;;;;4.83;4.43;;;16.10;99.90;;;;;;5074321;28;20652;-56
2023/08/11 05:05:17;;;;;;;5.37;4.13;;;16.20;99.90;;;;;;5080615;28;20190;-53
2023/08/11 05:07:43;;;;;;;4.20;3.80;;;16.20;99.90;;;;;;5073123;28;20334;-52
2023/08/11 05:10:09;;;;;;;5.93;3.93;;;16.20;99.90;;;;;;5069537;28;20210;-52
2023/08/11 05:12:34;;;;;;;6.97;3.87;;;16.20;99.90;;;;;;5074899;28;20990;-55
2023/08/11 05:14:59;;;;;;;4.37;4.03;;;16.20;99.90;;;;;;5078800;28;20221;-54
2023/08/11 05:17:25;;;;;;;6.53;3.70;;;16.30;99.90;;;;;;5077464;28;20269;-53
2023/08/11 05:19:50;;;;;;;5.23;3.90;;;16.30;99.90;;;;;;5080303;28;20675;-54
2023/08/11 05:22:16;;;;;;;5.27;4.10;;;16.20;99.90;;;;;;5077408;28;20182;-53
2023/08/11 05:24:42;;;;;;;5.03;3.60;;;16.30;99.90;;;;;;5080531;28;20560;-58
2023/08/11 05:27:08;;;;;;;8.20;3.73;;;16.40;99.90;;;;;;5077569;28;20218;-54
2023/08/11 05:29:34;;;;;;;5.77;3.53;;;16.40;99.90;;;;;;5080160;28;20301;-53
2023/08/11 05:31:59;;;;;;;4.17;3.83;;;16.40;99.90;;;;;;5080134;28;20251;-55
2023/08/11 05:34:25;;;;;;;8.93;4.03;;;16.50;99.90;;;;;;5078438;28;20202;-55
2023/08/11 05:36:50;;;;;;;7.73;4.00;;;16.50;99.90;;;;;;5077154;28;20190;-55
2023/08/11 05:39:16;;;;;;;5.37;3.10;;;16.60;99.90;;;;;;5072936;28;20863;-55
2023/08/11 05:41:42;;;;;;;5.70;3.70;;;16.70;99.90;;;;;;5078451;28;20285;-53
2023/08/11 05:44:08;;;;;;;5.27;3.23;;;16.80;99.90;;;;;;5076634;28;20226;-54
2023/08/11 05:46:33;;;;;;;7.30;3.70;;;16.80;99.90;;;;;;5075403;28;20202;-54
2023/08/11 05:48:59;;;;;;;4.33;3.73;;;16.90;99.90;;;;;;5080741;28;20220;-54
2023/08/11 05:51:24;;;;;;;3.77;3.03;;;16.90;99.90;;;;;;5076687;28;20276;-54
2023/08/11 05:53:50;;;;;;;4.80;3.50;;;16.80;99.90;;;;;;5080994;28;20189;-54
2023/08/11 05:56:15;;;;;;;7.47;4.53;;;16.80;99.90;;;;;;5060090;28;20193;-55
2023/08/11 05:58:41;;;;;;;7.20;4.13;;;16.90;99.90;;;;;;5062874;28;20268;-54
2023/08/11 06:01:06;;;;;;;7.87;4.30;;;17.00;99.90;;;;;;5079854;28;20260;-54
2023/08/11 06:03:32;;;;;;;7.37;3.30;;;17.10;99.90;;;;;;5078483;28;20273;-58
2023/08/11 06:06:04;;;;;;;11.23;3.50;;;17.10;99.90;;;;;;5077685;28;20202;-54
2023/08/11 06:08:30;;;;;;;5.90;3.63;;;17.20;99.90;;;;;;5080228;28;20194;-55
2023/08/11 06:10:55;;;;;;;8.73;5.07;;;17.20;99.90;;;;;;5080059;28;20766;-56
2023/08/11 06:13:22;;;;;;;8.40;4.70;;;17.20;99.90;;;;;;5074799;28;20242;-53
2023/08/11 06:15:49;;;;;;;4.40;3.93;;;17.30;99.90;;;;;;5078772;28;20199;-55
2023/08/11 06:18:15;;;;;;;4.27;3.17;;;17.40;99.90;;;;;;5079850;28;20742;-56
2023/08/11 06:20:40;;;;;;;7.90;4.10;;;17.50;99.90;;;;;;5075351;28;20190;-63
2023/08/11 06:23:06;;;;;;;6.30;4.83;;;17.60;99.90;;;;;;5076804;28;20215;-60
2023/08/11 06:25:31;;;;;;;5.43;3.17;;;17.60;99.90;;;;;;5076790;28;20481;-57
2023/08/11 06:27:57;;;;;;;5.53;3.60;;;17.60;99.90;;;;;;5075702;28;20187;-57
2023/08/11 06:30:22;;;;;;;5.47;3.70;;;17.60;99.90;;;;;;5079728;28;20264;-57
2023/08/11 06:32:48;;;;;;;7.93;4.03;;;17.70;99.90;;;;;;5057874;28;20195;-57
2023/08/11 06:35:14;;;;;;;7.67;3.63;;;17.70;99.90;;;;;;5069809;28;20192;-57
2023/08/11 06:37:39;;;;;;;6.30;3.20;;;17.70;99.90;;;;;;5062615;28;20212;-57
2023/08/11 06:40:06;;;;;;;7.33;3.90;;;17.80;99.90;;;;;;5080557;28;20196;-56
2023/08/11 06:42:31;;;;;;;4.87;3.27;;;17.90;99.90;;;;;;5080936;28;20224;-66
2023/08/11 06:44:57;;;;;;;7.90;4.53;;;18.00;99.90;;;;;;5078944;28;20272;-61
2023/08/11 06:47:23;;;;;;;5.10;3.10;;;18.00;99.90;;;;;;5081080;28;20240;-59
2023/08/11 06:49:49;;;;;;;6.43;3.57;;;18.10;99.90;;;;;;5083716;28;20192;-57
2023/08/11 06:52:14;;;;;;;4.63;2.90;;;17.90;99.90;;;;;;5076941;28;20196;-61
2023/08/11 06:54:40;;;;;;;4.77;3.43;;;17.70;99.90;;;;;;5061438;28;20214;-57
2023/08/11 06:57:06;;;;;;;7.80;3.00;;;17.80;99.90;;;;;;5079744;28;20212;-54
2023/08/11 06:59:31;;;;;;;4.10;3.00;;;17.90;99.90;;;;;;5083950;28;20689;-54
2023/08/11 07:01:57;;;;;;;3.87;3.00;;;17.90;99.90;;;;;;5081507;28;20307;-54
2023/08/11 07:04:22;;;;;;;5.07;3.33;;;17.80;99.90;;;;;;5083310;28;20654;-54
2023/08/11 07:06:48;;;;;;;5.33;3.43;;;17.70;99.90;;;;;;5079546;28;20202;-54
2023/08/11 07:09:14;;;;;;;9.07;3.03;;;17.70;99.90;;;;;;5082357;28;20780;-54
2023/08/11 07:11:39;;;;;;;3.33;2.83;;;17.70;99.90;;;;;;5083775;28;20212;-58
2023/08/11 07:14:05;;;;;;;4.23;2.87;;;17.80;99.90;;;;;;5081875;28;20190;-56
2023/08/11 07:16:30;;;;;;;10.13;3.70;;;17.90;99.90;;;;;;5083349;28;20202;-54
2023/08/11 07:18:56;;;;;;;7.83;2.60;;;17.90;99.90;;;;;;5079570;28;20265;-56
2023/08/11 07:21:21;;;;;;;6.47;2.43;;;17.80;99.90;;;;;;5076540;28;20200;-56
2023/08/11 07:23:47;;;;;;;4.03;2.50;;;17.90;99.90;;;;;;5079605;28;20578;-57
2023/08/11 07:26:12;;;;;;;3.57;2.80;;;18.10;99.90;;;;;;5079728;28;20174;-57
2023/08/11 07:28:38;;;;;;;4.57;2.73;;;18.30;99.90;;;;;;5076957;28;20709;-57
2023/08/11 07:31:03;;;;;;;8.00;3.10;;;18.40;99.90;;;;;;5064589;28;20297;-58
2023/08/11 07:33:29;;;;;;;3.33;3.03;;;18.20;99.90;;;;;;5091255;28;20704;-58
2023/08/11 07:35:54;;;;;;;4.20;2.50;;;18.30;99.90;;;;;;5072047;28;20196;-57
2023/08/11 07:38:20;;;;;;;6.80;2.67;;;18.30;99.90;;;;;;5071437;28;20189;-58
2023/08/11 07:40:47;;;;;;;4.67;2.40;;;18.30;99.90;;;;;;5071059;28;20198;-58
2023/08/11 07:43:12;;;;;;;2.83;2.20;;;18.40;99.90;;;;;;5046980;28;20298;-58
2023/08/11 07:45:38;;;;;;;3.43;2.00;;;18.40;99.90;;;;;;5070083;28;20211;-58
2023/08/11 07:48:04;;;;;;;4.87;2.30;;;18.40;99.90;;;;;;5066923;28;20594;-58
2023/08/11 07:50:29;;;;;;;3.93;2.40;;;18.50;99.90;;;;;;5083108;28;20267;-58
2023/08/11 07:52:55;;;;;;;3.03;2.10;;;18.50;99.90;;;;;;5083685;28;20747;-58
2023/08/11 07:55:20;;;;;;;3.43;2.23;;;18.40;99.90;;;;;;5077263;28;20680;-58
2023/08/11 07:57:46;;;;;;;5.30;2.70;;;18.50;99.90;;;;;;5059497;28;20682;-54
2023/08/11 08:00:16;;;;;;;3.17;2.00;;;18.70;99.90;;;;;;5079833;28;20551;-58
2023/08/11 08:02:43;;;;;;;3.67;2.47;;;18.80;99.90;;;;;;5062221;28;20187;-56
2023/08/11 08:05:09;;;;;;;4.77;2.13;;;19.00;99.90;;;;;;5081581;28;20194;-55
2023/08/11 08:07:35;;;;;;;5.57;2.40;;;19.10;99.90;;;;;;5079481;28;20192;-54
2023/08/11 08:10:00;;;;;;;3.57;2.40;;;19.20;99.90;;;;;;5078962;28;20214;-55
2023/08/11 08:12:26;;;;;;;2.90;2.30;;;19.40;99.90;;;;;;5058627;28;20545;-55
2023/08/11 08:14:51;;;;;;;5.13;2.53;;;19.30;99.90;;;;;;5076254;28;20183;-55
2023/08/11 08:17:18;;;;;;;4.63;2.23;;;19.20;99.90;;;;;;5059857;28;20232;-53
2023/08/11 08:19:43;;;;;;;5.47;1.83;;;19.00;99.90;;;;;;5080224;28;20181;-54
2023/08/11 08:22:09;;;;;;;4.40;1.90;;;19.00;99.90;;;;;;5082228;28;20204;-55
2023/08/11 08:24:34;;;;;;;2.53;2.07;;;19.10;99.90;;;;;;5080754;28;20223;-57
2023/08/11 08:27:00;;;;;;;4.27;1.93;;;19.10;99.90;;;;;;5063436;28;20693;-57
2023/08/11 08:29:25;;;;;;;2.27;2.07;;;19.30;99.90;;;;;;5082358;28;20192;-58
2023/08/11 08:31:51;;;;;;;4.93;2.20;;;19.50;99.90;;;;;;5079726;28;20219;-56
2023/08/11 08:34:16;;;;;;;3.67;1.90;;;19.50;99.90;;;;;;5062160;28;20207;-55
2023/08/11 08:36:42;;;;;;;3.90;2.00;;;19.50;99.90;;;;;;5060306;28;20594;-55
2023/08/11 08:39:07;;;;;;;2.07;1.70;;;19.50;99.90;;;;;;5082732;28;20207;-55
2023/08/11 08:41:37;;;;;;;3.90;1.93;;;19.60;99.90;;;;;;5081775;28;20216;-55
2023/08/11 08:44:03;;;;;;;3.23;1.90;;;19.70;99.90;;;;;;5075678;28;20911;-55
2023/08/11 08:46:30;;;;;;;2.23;1.73;;;19.80;99.90;;;;;;5079480;28;20276;-56
2023/08/11 08:49:03;;;;;;;2.70;2.17;;;19.90;99.90;;;;;;5079159;28;20203;-60
2023/08/11 08:51:30;;;;;;;5.13;2.47;;;19.90;99.90;;;;;;5079235;28;20310;-61
2023/08/11 08:53:56;;;;;;;2.67;2.03;;;19.90;99.90;;;;;;5076857;28;20239;-55
2023/08/11 08:56:21;;;;;;;4.47;2.70;;;19.90;99.90;;;;;;5076114;28;20189;-53
2023/08/11 08:58:47;;;;;;;2.10;1.90;;;19.90;99.90;;;;;;5077457;28;20585;-57
2023/08/11 09:01:13;;;;;;;2.93;1.97;;;20.00;99.90;;;;;;5075996;28;20192;-56
2023/08/11 09:03:39;;;;;;;6.43;1.63;;;20.00;99.90;;;;;;5076401;28;20181;-57
2023/08/11 09:06:06;;;;;;;4.00;2.83;;;20.10;99.90;;;;;;5078476;28;20729;-56
2023/08/11 09:08:32;;;;;;;4.90;2.50;;;20.20;99.90;;;;;;5079862;28;20202;-56
2023/08/11 09:10:57;;;;;;;7.50;2.90;;;20.20;99.90;;;;;;5079790;28;20244;-56
2023/08/11 09:13:26;;;;;;;5.07;2.70;;;20.30;99.90;;;;;;5076790;28;20618;-56
2023/08/11 09:15:51;;;;;;;2.87;1.50;;;20.40;99.90;;;;;;5142387;22;20351;-56
2023/08/11 09:18:17;;;;;;;3.70;1.83;;;20.50;99.90;;;;;;5094678;28;20657;-56
2023/08/11 09:20:46;;;;;;;1.90;1.80;;;20.50;99.90;;;;;;5098124;28;20192;-56
2023/08/11 09:23:12;;;;;;;3.00;1.80;;;20.70;99.90;;;;;;5097533;28;20188;-57
2023/08/11 09:25:37;;;;;;;5.23;2.07;;;20.80;99.90;;;;;;5089567;28;20253;-54
2023/08/11 09:28:03;;;;;;;1.70;1.60;;;20.90;99.90;;;;;;5097087;28;20253;-53
2023/08/11 09:30:31;;;;;;;3.50;1.63;;;20.90;99.90;;;;;;5095193;28;20217;-55
2023/08/11 09:32:59;;;;;;;4.03;2.10;;;21.00;99.90;;;;;;5093476;28;20177;-57
2023/08/11 09:35:25;;;;;;;6.87;1.87;;;21.00;99.90;;;;;;5093065;28;20195;-55
2023/08/11 09:37:55;;;;;;;4.03;1.10;;;21.30;99.90;;;;;;5092473;28;20189;-53
2023/08/11 09:40:23;;;;;;;3.03;1.50;;;21.50;99.90;;;;;;5096665;28;20274;-55
2023/08/11 09:42:49;;;;;;;2.37;1.20;;;21.70;99.90;;;;;;5091821;28;20192;-55
2023/08/11 09:45:15;;;;;;;2.57;1.10;;;21.60;99.90;;;;;;5094486;28;20211;-56
2023/08/11 09:47:40;;;;;;;1.57;1.23;;;21.50;99.90;;;;;;5091012;28;20291;-56
2023/08/11 09:50:08;;;;;;;2.10;1.27;;;21.40;99.90;;;;;;5085944;28;20235;-55
2023/08/11 09:52:34;;;;;;;2.90;1.43;;;21.40;99.90;;;;;;5099744;28;20190;-58
2023/08/11 09:55:06;;;;;;;10.53;1.73;;;21.50;99.90;;;;;;5092122;28;20199;-55
2023/08/11 09:57:32;;;;;;;2.93;1.20;;;21.60;99.90;;;;;;5094744;28;20549;-56
2023/08/11 10:00:00;;;;;;;1.73;1.63;;;21.60;99.90;;;;;;5095027;28;20185;-56
2023/08/11 10:02:29;;;;;;;1.67;1.57;;;21.80;99.90;;;;;;5095387;28;20200;-57
2023/08/11 10:05:15;;;;;;;1.07;1.00;;;21.90;99.90;;;;;;5093016;28;20203;-55
2023/08/11 10:07:44;;;;;;;1.73;1.17;;;21.80;99.90;;;;;;5098755;28;20187;-56
2023/08/11 10:10:16;;;;;;;1.23;1.00;;;21.70;99.90;;;;;;5091382;28;20589;-56
2023/08/11 10:12:47;;;;;;;0.97;0.97;;;21.70;99.90;;;;;;5091942;28;20590;-54
2023/08/11 10:15:15;;;;;;;2.27;1.30;;;21.90;99.90;;;;;;5109158;28;20220;-57
2023/08/11 10:17:41;;;;;;;5.87;1.20;;;21.90;99.90;;;;;;5110051;27;20203;-54
2023/08/11 10:20:07;;;;;;;2.47;0.90;;;21.80;99.90;;;;;;5117571;27;20233;-56
2023/08/11 10:22:33;;;;;;;0.97;0.87;;;21.80;99.90;;;;;;5117222;27;20193;-58
2023/08/11 10:25:04;;;;;;;1.57;1.47;;;21.70;99.90;;;;;;5117713;27;20198;-55
2023/08/11 10:27:30;;;;;;;1.67;1.37;;;21.80;99.90;;;;;;5098681;27;20249;-55
2023/08/11 10:29:57;;;;;;;3.70;1.10;;;21.90;99.90;;;;;;5120740;27;20649;-63
2023/08/11 10:32:23;;;;;;;3.23;1.33;;;21.90;99.90;;;;;;5117262;27;20864;-62
2023/08/11 10:34:50;;;;;;;2.43;1.10;;;21.90;99.90;;;;;;5118170;27;20187;-61
2023/08/11 10:37:15;;;;;;;2.83;1.70;;;21.90;99.90;;;;;;5096659;27;20200;-64
2023/08/11 10:39:41;;;;;;;3.10;1.67;;;21.90;99.90;;;;;;5115636;27;20195;-58
2023/08/11 10:42:12;;;;;;;1.60;1.50;;;21.90;99.90;;;;;;5115163;27;20200;-58
2023/08/11 10:44:43;;;;;;;2.47;1.60;;;22.00;99.90;;;;;;5111922;27;20267;-62
2023/08/11 10:47:09;;;;;;;2.80;1.70;;;22.20;99.90;;;;;;5112890;27;20206;-60
2023/08/11 10:49:40;;;;;;;6.83;1.63;;;22.10;99.90;;;;;;5117637;27;20188;-57
2023/08/11 10:52:05;;;;;;;1.47;1.37;;;22.20;99.90;;;;;;5098783;27;20244;-55
2023/08/11 10:54:32;;;;;;;2.07;1.53;;;22.40;99.90;;;;;;5117020;27;20215;-59
2023/08/11 10:57:01;;;;;;;3.45;1.20;;;22.50;99.90;;;;;;5116052;27;20183;-57
2023/08/11 10:59:31;;;;;;;1.10;1.00;;;22.50;99.90;;;;;;5120045;27;20187;-54
2023/08/11 11:01:59;;;;;;;1.40;1.30;;;22.40;99.90;;;;;;5118507;27;20216;-55
2023/08/11 11:04:29;;;;;;;1.67;1.57;;;22.40;99.90;;;;;;5114952;27;20228;-56
2023/08/11 11:06:54;;;;;;;1.30;1.13;;;22.50;99.90;;;;;;5118254;27;20789;-56
2023/08/11 11:09:20;;;;;;;2.33;1.90;;;22.70;99.90;;;;;;5115666;27;20196;-55
2023/08/11 11:11:46;;;;;;;2.77;1.30;;;22.60;99.90;;;;;;5115885;27;20280;-58
2023/08/11 11:14:12;;;;;;;0.93;0.90;;;22.50;99.90;;;;;;5123188;27;20208;-58
2023/08/11 11:16:38;;;;;;;1.37;1.27;;;22.70;99.50;;;;;;5116280;27;20215;-58
2023/08/11 11:19:06;;;;;;;1.25;0.82;;;22.50;99.90;;;;;;5125241;27;20200;-58
2023/08/11 11:21:33;;;;;;;1.65;1.40;;;22.40;99.90;;;;;;5122906;27;20234;-58
2023/08/11 11:23:59;;;;;;;2.77;1.20;;;22.60;99.90;;;;;;5107838;27;20215;-59
2023/08/11 11:26:29;;;;;;;1.23;1.10;;;22.50;99.90;;;;;;5115371;27;20203;-62
2023/08/11 11:28:56;;;;;;;3.57;2.37;;;22.40;99.90;;;;;;5102615;27;20552;-56
2023/08/11 11:31:23;;;;;;;1.43;1.33;;;22.20;99.90;;;;;;5115467;27;20756;-60
2023/08/11 11:33:49;;;;;;;1.63;1.50;;;22.20;99.90;;;;;;5114899;27;20196;-60
2023/08/11 11:36:17;;;;;;;1.27;1.10;;;22.50;99.90;;;;;;5116740;27;20264;-57
2023/08/11 11:38:43;;;;;;;2.00;1.50;;;22.70;99.90;;;;;;5117337;27;20195;-59
2023/08/11 11:41:15;;;;;;;6.72;1.75;;;23.00;99.90;;;;;;5108128;27;20199;-58
2023/08/11 11:43:41;;;;;;;3.10;1.00;;;23.40;98.90;;;;;;5102689;27;20188;-54
2023/08/11 11:46:14;;;;;;;1.73;1.40;;;23.70;99.10;;;;;;5111500;27;20200;-55
2023/08/11 11:48:44;;;;;;;2.20;2.03;;;24.20;98.00;;;;;;5116023;27;20221;-57
2023/08/11 11:51:11;;;;;;;1.88;1.10;;;24.10;98.90;;;;;;5115076;27;20219;-54
2023/08/11 11:53:38;;;;;;;3.33;1.20;;;24.30;97.70;;;;;;5114516;27;20181;-54
2023/08/11 11:56:04;;;;;;;2.55;1.13;;;23.70;98.30;;;;;;5112804;27;20188;-54
2023/08/11 11:58:34;;;;;;;2.50;2.30;;;23.50;99.00;;;;;;5117186;27;20197;-54
2023/08/11 12:01:17;;;;;;;1.92;1.33;;;23.40;99.00;;;;;;5121454;27;20235;-57
2023/08/11 12:03:48;;;;;;;2.38;1.55;;;24.20;98.00;;;;;;5115544;27;20188;-57
2023/08/11 12:06:15;;;;;;;6.10;3.13;;;24.50;96.60;;;;;;5116852;27;20181;-55
2023/08/11 12:08:41;;;;;;;2.00;1.60;;;24.40;97.60;;;;;;5117805;27;20276;-56
2023/08/11 12:11:09;;;;;;;9.05;6.55;;;24.20;97.80;;;;;;5114198;27;20201;-54
2023/08/11 12:13:38;;;;;;;6.32;5.70;;;24.10;99.10;;;;;;5093271;27;20645;-62
2023/08/11 12:16:05;;;;;;;3.28;2.72;;;24.20;99.90;;;;;;5102458;28;21082;-60
2023/08/11 12:18:30;;;;;;;3.33;2.67;;;24.30;97.50;;;;;;5095851;28;20203;-58
2023/08/11 12:21:00;;;;;;;2.97;1.55;;;24.60;98.30;;;;;;5091947;28;20201;-62
2023/08/11 12:23:27;;;;;;;3.22;2.22;;;24.30;97.10;;;;;;5097041;28;20287;-58
2023/08/11 12:25:53;;;;;;;2.92;1.40;;;24.60;96.70;;;;;;5093915;27;20186;-58
2023/08/11 12:28:19;;;;;;;1.17;0.98;;;24.20;96.70;;;;;;5096140;28;20195;-58
2023/08/11 12:30:44;;;;;;;2.65;1.38;;;24.90;96.10;;;;;;5103019;28;20220;-58
2023/08/11 12:33:10;;;;;;;6.05;5.47;;;25.50;94.50;;;;;;5088738;28;20188;-58
2023/08/11 12:35:36;;;;;;;7.95;5.85;;;25.50;96.60;;;;;;5093300;28;20199;-59
2023/08/11 12:38:02;;;;;;;5.78;4.70;;;25.00;97.70;;;;;;5091816;28;20968;-55
2023/08/11 12:40:29;;;;;;;7.30;4.18;;;24.90;97.40;;;;;;5093032;28;20561;-58
2023/08/11 12:42:55;;;;;;;2.60;2.28;;;24.60;97.50;;;;;;5095373;28;20276;-56